<?xml version="1.0" encoding="UTF-8" standalone="no" ?><gpx xmlns="http://www.topografix.com/GPX/1/1" xmlns:gpxx="http://www.garmin.com/xmlschemas/GpxExtensions/v3" xmlns:wptx1="http://www.garmin.com/xmlschemas/WaypointExtension/v1" xmlns:gpxtpx="http://www.garmin.com/xmlschemas/TrackPointExtension/v1" creator="GuideVTT.com" version="1.1" xmlns:xsi="http://www.w3.org/2001/XMLSchema-instance" xsi:schemaLocation="http://www.topografix.com/GPX/1/1 http://www.topografix.com/GPX/1/1/gpx.xsd http://www.garmin.com/xmlschemas/GpxExtensions/v3 http://www8.garmin.com/xmlschemas/GpxExtensionsv3.xsd http://www.garmin.com/xmlschemas/WaypointExtension/v1 http://www8.garmin.com/xmlschemas/WaypointExtensionv1.xsd http://www.garmin.com/xmlschemas/TrackPointExtension/v1 http://www.garmin.com/xmlschemas/TrackPointExtensionv1.xsd">
<metadata><link href="http://www.garmin.com"><text>Garmin International</text></link><time>2013-06-22T15:13:50Z</time></metadata>
<trk><name>yverdon___ste-croix___jougne___oulens_1.gpx</name><extensions><gpxx:TrackExtension><gpxx:DisplayColor>Cyan</gpxx:DisplayColor></gpxx:TrackExtension></extensions><trkseg>
<trkpt lat="46.769609106704593" lon="6.64351237937808"><ele></ele><time>2015-8-4T19:10:7Z</time></trkpt>
<trkpt lat="46.769802225753665" lon="6.643335102126002"><ele></ele><time>2015-8-4T19:10:10Z</time></trkpt>
<trkpt lat="46.77004924044013" lon="6.643144749104977"><ele></ele><time>2015-8-4T19:10:13Z</time></trkpt>
<trkpt lat="46.770269349217415" lon="6.64301348850131"><ele></ele><time>2015-8-4T19:10:16Z</time></trkpt>
<trkpt lat="46.770498426631093" lon="6.642941236495972"><ele></ele><time>2015-8-4T19:10:19Z</time></trkpt>
<trkpt lat="46.770875696092844" lon="6.642895303666592"><ele></ele><time>2015-8-4T19:10:22Z</time></trkpt>
<trkpt lat="46.77118674851954" lon="6.642863787710667"><ele></ele><time>2015-8-4T19:10:25Z</time></trkpt>
<trkpt lat="46.77165387198329" lon="6.642850711941719"><ele></ele><time>2015-8-4T19:10:28Z</time></trkpt>
<trkpt lat="46.771923350170255" lon="6.642804695293307"><ele></ele><time>2015-8-4T19:10:31Z</time></trkpt>
<trkpt lat="46.772197354584932" lon="6.642699670046568"><ele></ele><time>2015-8-4T19:10:34Z</time></trkpt>
<trkpt lat="46.772498264908791" lon="6.642489619553089"><ele></ele><time>2015-8-4T19:10:37Z</time></trkpt>
<trkpt lat="46.772817196324468" lon="6.642207317054272"><ele></ele><time>2015-8-4T19:10:40Z</time></trkpt>
<trkpt lat="46.773158507421613" lon="6.641820073127747"><ele></ele><time>2015-8-4T19:10:43Z</time></trkpt>
<trkpt lat="46.773540303111076" lon="6.641347417607904"><ele></ele><time>2015-8-4T19:10:46Z</time></trkpt>
<trkpt lat="46.773769380524755" lon="6.641045417636633"><ele></ele><time>2015-8-4T19:10:49Z</time></trkpt>
<trkpt lat="46.774110775440931" lon="6.640546526759863"><ele></ele><time>2015-8-4T19:10:52Z</time></trkpt>
<trkpt lat="46.774240946397185" lon="6.640290375798941"><ele></ele><time>2015-8-4T19:10:55Z</time></trkpt>
<trkpt lat="46.775053907185793" lon="6.638938123360276"><ele></ele><time>2015-8-4T19:10:58Z</time></trkpt>
<trkpt lat="46.775844404473901" lon="6.637651417404413"><ele></ele><time>2015-8-4T19:11:1Z</time></trkpt>
<trkpt lat="46.776432814076543" lon="6.636765198782086"><ele></ele><time>2015-8-4T19:11:4Z</time></trkpt>
<trkpt lat="46.777075119316578" lon="6.63592491298914"><ele></ele><time>2015-8-4T19:11:7Z</time></trkpt>
<trkpt lat="46.777569400146604" lon="6.63532099686563"><ele></ele><time>2015-8-4T19:11:10Z</time></trkpt>
<trkpt lat="46.77800509147346" lon="6.634795870631933"><ele></ele><time>2015-8-4T19:11:13Z</time></trkpt>
<trkpt lat="46.778467772528529" lon="6.634264122694731"><ele></ele><time>2015-8-4T19:11:16Z</time></trkpt>
<trkpt lat="46.778925843536854" lon="6.634014677256346"><ele></ele><time>2015-8-4T19:11:19Z</time></trkpt>
<trkpt lat="46.779226837679744" lon="6.633765231817961"><ele></ele><time>2015-8-4T19:11:22Z</time></trkpt>
<trkpt lat="46.779455915093422" lon="6.633561719208956"><ele></ele><time>2015-8-4T19:11:25Z</time></trkpt>
<trkpt lat="46.7797074560076" lon="6.633331971243024"><ele></ele><time>2015-8-4T19:11:28Z</time></trkpt>
<trkpt lat="46.780291339382529" lon="6.632590172812343"><ele></ele><time>2015-8-4T19:11:31Z</time></trkpt>
<trkpt lat="46.780623681843281" lon="6.632202845066786"><ele></ele><time>2015-8-4T19:11:34Z</time></trkpt>
<trkpt lat="46.780825853347778" lon="6.631973097100854"><ele></ele><time>2015-8-4T19:11:37Z</time></trkpt>
<trkpt lat="46.780987540259957" lon="6.631776206195355"><ele></ele><time>2015-8-4T19:11:40Z</time></trkpt>
<trkpt lat="46.781095331534743" lon="6.63166455924511"><ele></ele><time>2015-8-4T19:11:43Z</time></trkpt>
<trkpt lat="46.781454663723707" lon="6.632445752620697"><ele></ele><time>2015-8-4T19:11:46Z</time></trkpt>
<trkpt lat="46.781562454998493" lon="6.632609870284796"><ele></ele><time>2015-8-4T19:11:49Z</time></trkpt>
<trkpt lat="46.782595524564385" lon="6.634953450411558"><ele></ele><time>2015-8-4T19:11:52Z</time></trkpt>
<trkpt lat="46.783731859177351" lon="6.633798088878393"><ele></ele><time>2015-8-4T19:11:55Z</time></trkpt>
<trkpt lat="46.784446416422725" lon="6.633141785860062"><ele></ele><time>2015-8-4T19:11:58Z</time></trkpt>
<trkpt lat="46.78478772751987" lon="6.632866021245718"><ele></ele><time>2015-8-4T19:12:1Z</time></trkpt>
<trkpt lat="46.786359837278724" lon="6.631704121828079"><ele></ele><time>2015-8-4T19:12:4Z</time></trkpt>
<trkpt lat="46.786853866651654" lon="6.631336407735944"><ele></ele><time>2015-8-4T19:12:7Z</time></trkpt>
<trkpt lat="46.787505140528083" lon="6.630889987573028"><ele></ele><time>2015-8-4T19:12:10Z</time></trkpt>
<trkpt lat="46.788129508495331" lon="6.630482962355018"><ele></ele><time>2015-8-4T19:12:13Z</time></trkpt>
<trkpt lat="46.788439387455583" lon="6.630253214389086"><ele></ele><time>2015-8-4T19:12:16Z</time></trkpt>
<trkpt lat="46.788991838693619" lon="6.629879046231508"><ele></ele><time>2015-8-4T19:12:19Z</time></trkpt>
<trkpt lat="46.789449993520975" lon="6.629537651315332"><ele></ele><time>2015-8-4T19:12:22Z</time></trkpt>
<trkpt lat="46.790372924879193" lon="6.628891574218869"><ele></ele><time>2015-8-4T19:12:25Z</time></trkpt>
<trkpt lat="46.791202984750271" lon="6.628294112160802"><ele></ele><time>2015-8-4T19:12:28Z</time></trkpt>
<trkpt lat="46.791731212288141" lon="6.627889769151807"><ele></ele><time>2015-8-4T19:12:31Z</time></trkpt>
<trkpt lat="46.793139791116118" lon="6.627705954015255"><ele></ele><time>2015-8-4T19:12:34Z</time></trkpt>
<trkpt lat="46.79437855258584" lon="6.628027651458979"><ele></ele><time>2015-8-4T19:12:37Z</time></trkpt>
<trkpt lat="46.7949971370399" lon="6.628041062504053"><ele></ele><time>2015-8-4T19:12:40Z</time></trkpt>
<trkpt lat="46.795895425602794" lon="6.628369297832251"><ele></ele><time>2015-8-4T19:12:43Z</time></trkpt>
<trkpt lat="46.797647159546614" lon="6.628106692805886"><ele></ele><time>2015-8-4T19:12:46Z</time></trkpt>
<trkpt lat="46.798949707299471" lon="6.628172323107719"><ele></ele><time>2015-8-4T19:12:49Z</time></trkpt>
<trkpt lat="46.799982776865363" lon="6.628960054367781"><ele></ele><time>2015-8-4T19:12:52Z</time></trkpt>
<trkpt lat="46.801375178620219" lon="6.630798205733299"><ele></ele><time>2015-8-4T19:12:55Z</time></trkpt>
<trkpt lat="46.802722653374076" lon="6.63309576921165"><ele></ele><time>2015-8-4T19:12:58Z</time></trkpt>
<trkpt lat="46.806854847818613" lon="6.642351904883981"><ele></ele><time>2015-8-4T19:13:1Z</time></trkpt>
<trkpt lat="46.807393888011575" lon="6.64346787147224"><ele></ele><time>2015-8-4T19:13:4Z</time></trkpt>
<trkpt lat="46.810942199081182" lon="6.648194426670671"><ele></ele><time>2015-8-4T19:13:7Z</time></trkpt>
<trkpt lat="46.811840487644076" lon="6.649179132655263"><ele></ele><time>2015-8-4T19:13:10Z</time></trkpt>
<trkpt lat="46.812514225021005" lon="6.650820225477219"><ele></ele><time>2015-8-4T19:13:13Z</time></trkpt>
<trkpt lat="46.813682075589895" lon="6.651804931461811"><ele></ele><time>2015-8-4T19:13:16Z</time></trkpt>
<trkpt lat="46.81516433134675" lon="6.65233014151454"><ele></ele><time>2015-8-4T19:13:19Z</time></trkpt>
<trkpt lat="46.815523579716682" lon="6.651870561763644"><ele></ele><time>2015-8-4T19:13:22Z</time></trkpt>
<trkpt lat="46.81570328772068" lon="6.649244762957096"><ele></ele><time>2015-8-4T19:13:25Z</time></trkpt>
<trkpt lat="46.816511806100607" lon="6.646881485357881"><ele></ele><time>2015-8-4T19:13:28Z</time></trkpt>
<trkpt lat="46.817275229841471" lon="6.644255686551333"><ele></ele><time>2015-8-4T19:13:31Z</time></trkpt>
<trkpt lat="46.818218445405364" lon="6.640907702967525"><ele></ele><time>2015-8-4T19:13:34Z</time></trkpt>
<trkpt lat="46.819206587970257" lon="6.638084929436445"><ele></ele><time>2015-8-4T19:13:37Z</time></trkpt>
<trkpt lat="46.820015022531152" lon="6.636246861889958"><ele></ele><time>2015-8-4T19:13:40Z</time></trkpt>
<trkpt lat="46.82014980353415" lon="6.633686693385243"><ele></ele><time>2015-8-4T19:13:43Z</time></trkpt>
<trkpt lat="46.821137946099043" lon="6.632176777347922"><ele></ele><time>2015-8-4T19:13:46Z</time></trkpt>
<trkpt lat="46.820509135723114" lon="6.628566272556782"><ele></ele><time>2015-8-4T19:13:49Z</time></trkpt>
<trkpt lat="46.821811683475971" lon="6.626990726217628"><ele></ele><time>2015-8-4T19:13:52Z</time></trkpt>
<trkpt lat="46.822260869666934" lon="6.626990726217628"><ele></ele><time>2015-8-4T19:13:55Z</time></trkpt>
<trkpt lat="46.823114231228828" lon="6.623839717358351"><ele></ele><time>2015-8-4T19:13:58Z</time></trkpt>
<trkpt lat="46.823024461045861" lon="6.62213291041553"><ele></ele><time>2015-8-4T19:14:1Z</time></trkpt>
<trkpt lat="46.823338866233826" lon="6.622067280113697"><ele></ele><time>2015-8-4T19:14:4Z</time></trkpt>
<trkpt lat="46.823787968605757" lon="6.623248960822821"><ele></ele><time>2015-8-4T19:14:7Z</time></trkpt>
<trkpt lat="46.825809180736542" lon="6.624627532437444"><ele></ele><time>2015-8-4T19:14:10Z</time></trkpt>
<trkpt lat="46.82881853543222" lon="6.622198624536395"><ele></ele><time>2015-8-4T19:14:13Z</time></trkpt>
<trkpt lat="46.831109225749969" lon="6.621476439759135"><ele></ele><time>2015-8-4T19:14:16Z</time></trkpt>
<trkpt lat="46.834927098825574" lon="6.619310136884451"><ele></ele><time>2015-8-4T19:14:19Z</time></trkpt>
<trkpt lat="46.835376285016537" lon="6.619638372212648"><ele></ele><time>2015-8-4T19:14:22Z</time></trkpt>
<trkpt lat="46.836813529953361" lon="6.618588035926223"><ele></ele><time>2015-8-4T19:14:25Z</time></trkpt>
<trkpt lat="46.837262716144323" lon="6.619244506582618"><ele></ele><time>2015-8-4T19:14:28Z</time></trkpt>
<trkpt lat="46.837936453521252" lon="6.619966607540846"><ele></ele><time>2015-8-4T19:14:31Z</time></trkpt>
<trkpt lat="46.837981380522251" lon="6.620885683223605"><ele></ele><time>2015-8-4T19:14:34Z</time></trkpt>
<trkpt lat="46.839059377089143" lon="6.622920725494623"><ele></ele><time>2015-8-4T19:14:37Z</time></trkpt>
<trkpt lat="46.839598333463073" lon="6.622986355796456"><ele></ele><time>2015-8-4T19:14:40Z</time></trkpt>
<trkpt lat="46.840945808216929" lon="6.622198624536395"><ele></ele><time>2015-8-4T19:14:43Z</time></trkpt>
<trkpt lat="46.841260213404894" lon="6.622264254838228"><ele></ele><time>2015-8-4T19:14:46Z</time></trkpt>
<trkpt lat="46.842338209971786" lon="6.624299297109246"><ele></ele><time>2015-8-4T19:14:49Z</time></trkpt>
<trkpt lat="46.842248355969787" lon="6.625349633395672"><ele></ele><time>2015-8-4T19:14:52Z</time></trkpt>
<trkpt lat="46.842877166345716" lon="6.626268625259399"><ele></ele><time>2015-8-4T19:14:55Z</time></trkpt>
<trkpt lat="46.843505976721644" lon="6.628435011953116"><ele></ele><time>2015-8-4T19:14:58Z</time></trkpt>
<trkpt lat="46.843461133539677" lon="6.629025768488646"><ele></ele><time>2015-8-4T19:15:1Z</time></trkpt>
<trkpt lat="46.844134787097573" lon="6.628303667530417"><ele></ele><time>2015-8-4T19:15:4Z</time></trkpt>
<trkpt lat="46.844583973288536" lon="6.626531230285764"><ele></ele><time>2015-8-4T19:15:7Z</time></trkpt>
<trkpt lat="46.844494119286537" lon="6.625152658671141"><ele></ele><time>2015-8-4T19:15:10Z</time></trkpt>
<trkpt lat="46.846335707232356" lon="6.626728205010295"><ele></ele><time>2015-8-4T19:15:13Z</time></trkpt>
<trkpt lat="46.846739966422319" lon="6.627647196874023"><ele></ele><time>2015-8-4T19:15:16Z</time></trkpt>
<trkpt lat="46.847144225612283" lon="6.629222743213177"><ele></ele><time>2015-8-4T19:15:19Z</time></trkpt>
<trkpt lat="46.847548400983214" lon="6.627844171598554"><ele></ele><time>2015-8-4T19:15:22Z</time></trkpt>
<trkpt lat="46.847773035988212" lon="6.626465599983931"><ele></ele><time>2015-8-4T19:15:25Z</time></trkpt>
<trkpt lat="46.848087441176176" lon="6.625743499025703"><ele></ele><time>2015-8-4T19:15:28Z</time></trkpt>
<trkpt lat="46.847952660173178" lon="6.624233582988381"><ele></ele><time>2015-8-4T19:15:31Z</time></trkpt>
<trkpt lat="46.848536543548107" lon="6.622198624536395"><ele></ele><time>2015-8-4T19:15:34Z</time></trkpt>
<trkpt lat="46.848850948736072" lon="6.624036692082882"><ele></ele><time>2015-8-4T19:15:37Z</time></trkpt>
<trkpt lat="46.849120510742068" lon="6.624627532437444"><ele></ele><time>2015-8-4T19:15:40Z</time></trkpt>
<trkpt lat="46.849884018301964" lon="6.62495568394661"><ele></ele><time>2015-8-4T19:15:43Z</time></trkpt>
<trkpt lat="46.850063726305962" lon="6.625546524301171"><ele></ele><time>2015-8-4T19:15:46Z</time></trkpt>
<trkpt lat="46.849973872303963" lon="6.626006104052067"><ele></ele><time>2015-8-4T19:15:49Z</time></trkpt>
<trkpt lat="46.849884018301964" lon="6.626268625259399"><ele></ele><time>2015-8-4T19:15:52Z</time></trkpt>
<trkpt lat="46.850288277491927" lon="6.627187700942159"><ele></ele><time>2015-8-4T19:15:55Z</time></trkpt>
<trkpt lat="46.851096795871854" lon="6.627712827175856"><ele></ele><time>2015-8-4T19:15:58Z</time></trkpt>
<trkpt lat="46.850782390683889" lon="6.629091398790479"><ele></ele><time>2015-8-4T19:16:1Z</time></trkpt>
<trkpt lat="46.851860303431749" lon="6.627515936270356"><ele></ele><time>2015-8-4T19:16:4Z</time></trkpt>
<trkpt lat="46.851456128060818" lon="6.626399969682097"><ele></ele><time>2015-8-4T19:16:7Z</time></trkpt>
<trkpt lat="46.851725354790688" lon="6.625480642542243"><ele></ele><time>2015-8-4T19:16:10Z</time></trkpt>
<trkpt lat="46.851779250428081" lon="6.624614121392369"><ele></ele><time>2015-8-4T19:16:13Z</time></trkpt>
<trkpt lat="46.85140198096633" lon="6.623826390132308"><ele></ele><time>2015-8-4T19:16:16Z</time></trkpt>
<trkpt lat="46.851779250428081" lon="6.622566003352404"><ele></ele><time>2015-8-4T19:16:19Z</time></trkpt>
<trkpt lat="46.851240294054151" lon="6.618154523894191"><ele></ele><time>2015-8-4T19:16:22Z</time></trkpt>
<trkpt lat="46.851051617413759" lon="6.617800053209066"><ele></ele><time>2015-8-4T19:16:25Z</time></trkpt>
<trkpt lat="46.850458765402436" lon="6.614727834239602"><ele></ele><time>2015-8-4T19:16:28Z</time></trkpt>
<trkpt lat="46.849407758563757" lon="6.612167665734887"><ele></ele><time>2015-8-4T19:16:31Z</time></trkpt>
<trkpt lat="46.84946165420115" lon="6.610040673986077"><ele></ele><time>2015-8-4T19:16:34Z</time></trkpt>
<trkpt lat="46.849057395011187" lon="6.609292337670922"><ele></ele><time>2015-8-4T19:16:37Z</time></trkpt>
<trkpt lat="46.848114179447293" lon="6.606771480292082"><ele></ele><time>2015-8-4T19:16:40Z</time></trkpt>
<trkpt lat="46.849596351385117" lon="6.608228841796517"><ele></ele><time>2015-8-4T19:16:43Z</time></trkpt>
<trkpt lat="46.850485671311617" lon="6.608347026631236"><ele></ele><time>2015-8-4T19:16:46Z</time></trkpt>
<trkpt lat="46.851698448881507" lon="6.612246371805668"><ele></ele><time>2015-8-4T19:16:49Z</time></trkpt>
<trkpt lat="46.855740873143077" lon="6.620990457013249"><ele></ele><time>2015-8-4T19:16:52Z</time></trkpt>
<trkpt lat="46.855875570327044" lon="6.621029851958156"><ele></ele><time>2015-8-4T19:16:55Z</time></trkpt>
<trkpt lat="46.856037257239223" lon="6.618587784469128"><ele></ele><time>2015-8-4T19:16:58Z</time></trkpt>
<trkpt lat="46.855767779052258" lon="6.616894137114286"><ele></ele><time>2015-8-4T19:17:1Z</time></trkpt>
<trkpt lat="46.855956455692649" lon="6.616224590688944"><ele></ele><time>2015-8-4T19:17:4Z</time></trkpt>
<trkpt lat="46.855552196502686" lon="6.614333968609572"><ele></ele><time>2015-8-4T19:17:7Z</time></trkpt>
<trkpt lat="46.854959344491363" lon="6.611104169860482"><ele></ele><time>2015-8-4T19:17:10Z</time></trkpt>
<trkpt lat="46.85493235476315" lon="6.609410522505641"><ele></ele><time>2015-8-4T19:17:13Z</time></trkpt>
<trkpt lat="46.855956455692649" lon="6.606338219717145"><ele></ele><time>2015-8-4T19:17:16Z</time></trkpt>
<trkpt lat="46.856791879981756" lon="6.604959648102522"><ele></ele><time>2015-8-4T19:17:19Z</time></trkpt>
<trkpt lat="46.856791879981756" lon="6.603935630992055"><ele></ele><time>2015-8-4T19:17:22Z</time></trkpt>
<trkpt lat="46.855686977505684" lon="6.603817446157336"><ele></ele><time>2015-8-4T19:17:25Z</time></trkpt>
<trkpt lat="46.855067135766149" lon="6.602950925007463"><ele></ele><time>2015-8-4T19:17:28Z</time></trkpt>
<trkpt lat="46.854986250400543" lon="6.600981513038278"><ele></ele><time>2015-8-4T19:17:31Z</time></trkpt>
<trkpt lat="46.85490544885397" lon="6.600114991888404"><ele></ele><time>2015-8-4T19:17:34Z</time></trkpt>
<trkpt lat="46.855121031403542" lon="6.597869899123907"><ele></ele><time>2015-8-4T19:17:37Z</time></trkpt>
<trkpt lat="46.855363519862294" lon="6.595821781083942"><ele></ele><time>2015-8-4T19:17:40Z</time></trkpt>
<trkpt lat="46.854743678122759" lon="6.592434402555227"><ele></ele><time>2015-8-4T19:17:43Z</time></trkpt>
<trkpt lat="46.853369297459722" lon="6.58798361197114"><ele></ele><time>2015-8-4T19:17:46Z</time></trkpt>
<trkpt lat="46.851779250428081" lon="6.585620334371924"><ele></ele><time>2015-8-4T19:17:49Z</time></trkpt>
<trkpt lat="46.851294189691544" lon="6.580775678157806"><ele></ele><time>2015-8-4T19:17:52Z</time></trkpt>
<trkpt lat="46.847277833148837" lon="6.578687997534871"><ele></ele><time>2015-8-4T19:17:55Z</time></trkpt>
<trkpt lat="46.846819678321481" lon="6.578254736959934"><ele></ele><time>2015-8-4T19:17:58Z</time></trkpt>
<trkpt lat="46.844663769006729" lon="6.573213106021285"><ele></ele><time>2015-8-4T19:18:1Z</time></trkpt>
<trkpt lat="46.83889651671052" lon="6.567895794287324"><ele></ele><time>2015-8-4T19:18:4Z</time></trkpt>
<trkpt lat="46.837629927322268" lon="6.564981071278453"><ele></ele><time>2015-8-4T19:18:7Z</time></trkpt>
<trkpt lat="46.835743496194482" lon="6.562657272443175"><ele></ele><time>2015-8-4T19:18:10Z</time></trkpt>
<trkpt lat="46.834746301174164" lon="6.563129927963018"><ele></ele><time>2015-8-4T19:18:13Z</time></trkpt>
<trkpt lat="46.833856981247663" lon="6.563051138073206"><ele></ele><time>2015-8-4T19:18:16Z</time></trkpt>
<trkpt lat="46.833722284063697" lon="6.561869457364082"><ele></ele><time>2015-8-4T19:18:19Z</time></trkpt>
<trkpt lat="46.832927595824003" lon="6.56087988987565"><ele></ele><time>2015-8-4T19:18:22Z</time></trkpt>
<trkpt lat="46.832361649721861" lon="6.55867419205606"><ele></ele><time>2015-8-4T19:18:25Z</time></trkpt>
<trkpt lat="46.831795703619719" lon="6.55536568723619"><ele></ele><time>2015-8-4T19:18:28Z</time></trkpt>
<trkpt lat="46.831103945150971" lon="6.554446611553431"><ele></ele><time>2015-8-4T19:18:31Z</time></trkpt>
<trkpt lat="46.829091785475612" lon="6.551597602665424"><ele></ele><time>2015-8-4T19:18:34Z</time></trkpt>
<trkpt lat="46.827834080904722" lon="6.546450862661004"><ele></ele><time>2015-8-4T19:18:37Z</time></trkpt>
<trkpt lat="46.82789702899754" lon="6.542958542704582"><ele></ele><time>2015-8-4T19:18:40Z</time></trkpt>
<trkpt lat="46.8280856218189" lon="6.542223282158375"><ele></ele><time>2015-8-4T19:18:43Z</time></trkpt>
<trkpt lat="46.828337162733078" lon="6.541488021612167"><ele></ele><time>2015-8-4T19:18:46Z</time></trkpt>
<trkpt lat="46.828777380287647" lon="6.541304206475616"><ele></ele><time>2015-8-4T19:18:49Z</time></trkpt>
<trkpt lat="46.829028837382793" lon="6.5406608954072"><ele></ele><time>2015-8-4T19:18:52Z</time></trkpt>
<trkpt lat="46.829154649749398" lon="6.539925634860992"><ele></ele><time>2015-8-4T19:18:55Z</time></trkpt>
<trkpt lat="46.828777380287647" lon="6.537168575450778"><ele></ele><time>2015-8-4T19:18:58Z</time></trkpt>
<trkpt lat="46.827645488083363" lon="6.532940911129117"><ele></ele><time>2015-8-4T19:19:1Z</time></trkpt>
<trkpt lat="46.82726813480258" lon="6.528437566012144"><ele></ele><time>2015-8-4T19:19:4Z</time></trkpt>
<trkpt lat="46.826953729614615" lon="6.527426624670625"><ele></ele><time>2015-8-4T19:19:7Z</time></trkpt>
<trkpt lat="46.826387867331505" lon="6.527150943875313"><ele></ele><time>2015-8-4T19:19:10Z</time></trkpt>
<trkpt lat="46.825884785503149" lon="6.526231868192554"><ele></ele><time>2015-8-4T19:19:13Z</time></trkpt>
<trkpt lat="46.82525597512722" lon="6.525496691465378"><ele></ele><time>2015-8-4T19:19:16Z</time></trkpt>
<trkpt lat="46.824564216658473" lon="6.523107094690204"><ele></ele><time>2015-8-4T19:19:19Z</time></trkpt>
<trkpt lat="46.823935406282544" lon="6.519247144460678"><ele></ele><time>2015-8-4T19:19:22Z</time></trkpt>
<trkpt lat="46.823369460180402" lon="6.516949497163296"><ele></ele><time>2015-8-4T19:19:25Z</time></trkpt>
<trkpt lat="46.822992190718651" lon="6.512721916660667"><ele></ele><time>2015-8-4T19:19:28Z</time></trkpt>
<trkpt lat="46.822803514078259" lon="6.511894790455699"><ele></ele><time>2015-8-4T19:19:31Z</time></trkpt>
<trkpt lat="46.823558136820793" lon="6.510516218841076"><ele></ele><time>2015-8-4T19:19:34Z</time></trkpt>
<trkpt lat="46.824312759563327" lon="6.510424269363284"><ele></ele><time>2015-8-4T19:19:37Z</time></trkpt>
<trkpt lat="46.824690029025078" lon="6.50996477343142"><ele></ele><time>2015-8-4T19:19:40Z</time></trkpt>
<trkpt lat="46.824627164751291" lon="6.509137647226453"><ele></ele><time>2015-8-4T19:19:43Z</time></trkpt>
<trkpt lat="46.823558136820793" lon="6.507483310997486"><ele></ele><time>2015-8-4T19:19:46Z</time></trkpt>
<trkpt lat="46.822983054444194" lon="6.506038941442967"><ele></ele><time>2015-8-4T19:19:49Z</time></trkpt>
<trkpt lat="46.822605784982443" lon="6.504542184993625"><ele></ele><time>2015-8-4T19:19:52Z</time></trkpt>
<trkpt lat="46.822399087250233" lon="6.503675663843751"><ele></ele><time>2015-8-4T19:19:55Z</time></trkpt>
<trkpt lat="46.822632690891623" lon="6.502914167940617"><ele></ele><time>2015-8-4T19:19:58Z</time></trkpt>
<trkpt lat="46.822866210713983" lon="6.502362722530961"><ele></ele><time>2015-8-4T19:20:1Z</time></trkpt>
<trkpt lat="46.823566937819123" lon="6.501837512478232"><ele></ele><time>2015-8-4T19:20:4Z</time></trkpt>
<trkpt lat="46.824231622740626" lon="6.501102335751057"><ele></ele><time>2015-8-4T19:20:7Z</time></trkpt>
<trkpt lat="46.824411330744624" lon="6.500813495367765"><ele></ele><time>2015-8-4T19:20:10Z</time></trkpt>
<trkpt lat="46.824114862829447" lon="6.498791528865695"><ele></ele><time>2015-8-4T19:20:13Z</time></trkpt>
<trkpt lat="46.823773551732302" lon="6.498266402631998"><ele></ele><time>2015-8-4T19:20:16Z</time></trkpt>
<trkpt lat="46.823557885363698" lon="6.49804319255054"><ele></ele><time>2015-8-4T19:20:19Z</time></trkpt>
<trkpt lat="46.823135940358043" lon="6.497156890109181"><ele></ele><time>2015-8-4T19:20:22Z</time></trkpt>
<trkpt lat="46.826998740434647" lon="6.496500503271818"><ele></ele><time>2015-8-4T19:20:25Z</time></trkpt>
<trkpt lat="46.828750390559435" lon="6.496172267943621"><ele></ele><time>2015-8-4T19:20:28Z</time></trkpt>
<trkpt lat="46.829244503751397" lon="6.496040923520923"><ele></ele><time>2015-8-4T19:20:31Z</time></trkpt>
<trkpt lat="46.829963168129325" lon="6.494990587234497"><ele></ele><time>2015-8-4T19:20:34Z</time></trkpt>
<trkpt lat="46.83018771931529" lon="6.494202855974436"><ele></ele><time>2015-8-4T19:20:37Z</time></trkpt>
<trkpt lat="46.830142792314291" lon="6.490920586511493"><ele></ele><time>2015-8-4T19:20:40Z</time></trkpt>
<trkpt lat="46.828031810000539" lon="6.488951174542308"><ele></ele><time>2015-8-4T19:20:43Z</time></trkpt>
<trkpt lat="46.825516484677792" lon="6.484355963766575"><ele></ele><time>2015-8-4T19:20:46Z</time></trkpt>
<trkpt lat="46.825291933491826" lon="6.48238655179739"><ele></ele><time>2015-8-4T19:20:49Z</time></trkpt>
<trkpt lat="46.824213936924934" lon="6.479826383292675"><ele></ele><time>2015-8-4T19:20:52Z</time></trkpt>
<trkpt lat="46.824213936924934" lon="6.478841677308083"><ele></ele><time>2015-8-4T19:20:55Z</time></trkpt>
<trkpt lat="46.820890177041292" lon="6.47352428175509"><ele></ele><time>2015-8-4T19:20:58Z</time></trkpt>
<trkpt lat="46.819902034476399" lon="6.471489323303103"><ele></ele><time>2015-8-4T19:21:1Z</time></trkpt>
<trkpt lat="46.819048589095473" lon="6.468075709417462"><ele></ele><time>2015-8-4T19:21:4Z</time></trkpt>
<trkpt lat="46.818330008536577" lon="6.466171927750111"><ele></ele><time>2015-8-4T19:21:7Z</time></trkpt>
<trkpt lat="46.817736988887191" lon="6.461051506921649"><ele></ele><time>2015-8-4T19:21:10Z</time></trkpt>
<trkpt lat="46.817854000255466" lon="6.458675153553486"><ele></ele><time>2015-8-4T19:21:13Z</time></trkpt>
<trkpt lat="46.818105541169643" lon="6.456088749691844"><ele></ele><time>2015-8-4T19:21:16Z</time></trkpt>
<trkpt lat="46.818509800359607" lon="6.446832614019513"><ele></ele><time>2015-8-4T19:21:19Z</time></trkpt>
<trkpt lat="46.819668598473072" lon="6.441160831600428"><ele></ele><time>2015-8-4T19:21:22Z</time></trkpt>
<trkpt lat="46.820018710568547" lon="6.44062246195972"><ele></ele><time>2015-8-4T19:21:25Z</time></trkpt>
<trkpt lat="46.820917082950473" lon="6.440202360972762"><ele></ele><time>2015-8-4T19:21:28Z</time></trkpt>
<trkpt lat="46.823072992265224" lon="6.440202360972762"><ele></ele><time>2015-8-4T19:21:31Z</time></trkpt>
<trkpt lat="46.8235042411834" lon="6.44012357108295"><ele></ele><time>2015-8-4T19:21:34Z</time></trkpt>
<trkpt lat="46.82404319755733" lon="6.439362075179815"><ele></ele><time>2015-8-4T19:21:37Z</time></trkpt>
<trkpt lat="46.82458215393126" lon="6.437655268236995"><ele></ele><time>2015-8-4T19:21:40Z</time></trkpt>
<trkpt lat="46.825156817212701" lon="6.437129806727171"><ele></ele><time>2015-8-4T19:21:43Z</time></trkpt>
<trkpt lat="46.826144959777594" lon="6.435659285634756"><ele></ele><time>2015-8-4T19:21:46Z</time></trkpt>
<trkpt lat="46.827222956344485" lon="6.434031268581748"><ele></ele><time>2015-8-4T19:21:49Z</time></trkpt>
<trkpt lat="46.828211098909378" lon="6.43261338584125"><ele></ele><time>2015-8-4T19:21:52Z</time></trkpt>
<trkpt lat="46.829504678025842" lon="6.432035621255636"><ele></ele><time>2015-8-4T19:21:55Z</time></trkpt>
<trkpt lat="46.830780236050487" lon="6.431116629391909"><ele></ele><time>2015-8-4T19:21:58Z</time></trkpt>
<trkpt lat="46.831355150789022" lon="6.430617738515139"><ele></ele><time>2015-8-4T19:22:1Z</time></trkpt>
<trkpt lat="46.83239727281034" lon="6.428018091246486"><ele></ele><time>2015-8-4T19:22:4Z</time></trkpt>
<trkpt lat="46.833169749006629" lon="6.426258813589811"><ele></ele><time>2015-8-4T19:22:7Z</time></trkpt>
<trkpt lat="46.833744663745165" lon="6.42547108232975"><ele></ele><time>2015-8-4T19:22:10Z</time></trkpt>
<trkpt lat="46.834193849936128" lon="6.423948090523481"><ele></ele><time>2015-8-4T19:22:13Z</time></trkpt>
<trkpt lat="46.8344094324857" lon="6.423396645113826"><ele></ele><time>2015-8-4T19:22:16Z</time></trkpt>
<trkpt lat="46.834553182125092" lon="6.422057552263141"><ele></ele><time>2015-8-4T19:22:19Z</time></trkpt>
<trkpt lat="46.834175828844309" lon="6.420088140293956"><ele></ele><time>2015-8-4T19:22:22Z</time></trkpt>
<trkpt lat="46.834121933206916" lon="6.418670173734427"><ele></ele><time>2015-8-4T19:22:25Z</time></trkpt>
<trkpt lat="46.834032163023949" lon="6.417173417285085"><ele></ele><time>2015-8-4T19:22:28Z</time></trkpt>
<trkpt lat="46.83401414193213" lon="6.416149400174618"><ele></ele><time>2015-8-4T19:22:31Z</time></trkpt>
<trkpt lat="46.833762601017952" lon="6.414573853835464"><ele></ele><time>2015-8-4T19:22:34Z</time></trkpt>
<trkpt lat="46.833565039560199" lon="6.413681097328663"><ele></ele><time>2015-8-4T19:22:37Z</time></trkpt>
<trkpt lat="46.833511143922806" lon="6.413418492302299"><ele></ele><time>2015-8-4T19:22:40Z</time></trkpt>
<trkpt lat="46.833349373191595" lon="6.412210576236248"><ele></ele><time>2015-8-4T19:22:43Z</time></trkpt>
<trkpt lat="46.833097916096449" lon="6.410845164209604"><ele></ele><time>2015-8-4T19:22:46Z</time></trkpt>
<trkpt lat="46.833043517544866" lon="6.409631045535207"><ele></ele><time>2015-8-4T19:22:49Z</time></trkpt>
<trkpt lat="46.833272594958544" lon="6.40829186886549"><ele></ele><time>2015-8-4T19:22:52Z</time></trkpt>
<trkpt lat="46.830833712592721" lon="6.407149666920304"><ele></ele><time>2015-8-4T19:22:55Z</time></trkpt>
<trkpt lat="46.829782705754042" lon="6.406519431620836"><ele></ele><time>2015-8-4T19:22:58Z</time></trkpt>
<trkpt lat="46.828866396099329" lon="6.405337834730744"><ele></ele><time>2015-8-4T19:23:1Z</time></trkpt>
<trkpt lat="46.828556433320045" lon="6.405002977699041"><ele></ele><time>2015-8-4T19:23:4Z</time></trkpt>
<trkpt lat="46.828206153586507" lon="6.403998574241996"><ele></ele><time>2015-8-4T19:23:7Z</time></trkpt>
<trkpt lat="46.827923180535436" lon="6.40336842276156"><ele></ele><time>2015-8-4T19:23:10Z</time></trkpt>
<trkpt lat="46.827640207484365" lon="6.403073044493794"><ele></ele><time>2015-8-4T19:23:13Z</time></trkpt>
<trkpt lat="46.827276349067688" lon="6.402738187462091"><ele></ele><time>2015-8-4T19:23:16Z</time></trkpt>
<trkpt lat="46.826939480379224" lon="6.402521599084139"><ele></ele><time>2015-8-4T19:23:19Z</time></trkpt>
<trkpt lat="46.826575705781579" lon="6.401989851146936"><ele></ele><time>2015-8-4T19:23:22Z</time></trkpt>
<trkpt lat="46.825955864042044" lon="6.400749161839485"><ele></ele><time>2015-8-4T19:23:25Z</time></trkpt>
<trkpt lat="46.825389917939901" lon="6.399508388713002"><ele></ele><time>2015-8-4T19:23:28Z</time></trkpt>
<trkpt lat="46.825187746435404" lon="6.398602472618222"><ele></ele><time>2015-8-4T19:23:31Z</time></trkpt>
<trkpt lat="46.82485087774694" lon="6.397539060562849"><ele></ele><time>2015-8-4T19:23:34Z</time></trkpt>
<trkpt lat="46.824190635234118" lon="6.396889127790928"><ele></ele><time>2015-8-4T19:23:37Z</time></trkpt>
<trkpt lat="46.823463002219796" lon="6.396337682381272"><ele></ele><time>2015-8-4T19:23:40Z</time></trkpt>
<trkpt lat="46.822802759706974" lon="6.39580593444407"><ele></ele><time>2015-8-4T19:23:43Z</time></trkpt>
<trkpt lat="46.822129022330046" lon="6.395293883979321"><ele></ele><time>2015-8-4T19:23:46Z</time></trkpt>
<trkpt lat="46.821589982137084" lon="6.394525850191712"><ele></ele><time>2015-8-4T19:23:49Z</time></trkpt>
<trkpt lat="46.821091426536441" lon="6.393639631569386"><ele></ele><time>2015-8-4T19:23:52Z</time></trkpt>
<trkpt lat="46.820538975298405" lon="6.393147278577089"><ele></ele><time>2015-8-4T19:23:55Z</time></trkpt>
<trkpt lat="46.820121305063367" lon="6.392773110419512"><ele></ele><time>2015-8-4T19:23:58Z</time></trkpt>
<trkpt lat="46.819555358961225" lon="6.392103480175138"><ele></ele><time>2015-8-4T19:24:1Z</time></trkpt>
<trkpt lat="46.818881621584296" lon="6.391650522127748"><ele></ele><time>2015-8-4T19:24:4Z</time></trkpt>
<trkpt lat="46.818126998841763" lon="6.391394538804889"><ele></ele><time>2015-8-4T19:24:7Z</time></trkpt>
<trkpt lat="46.817480251193047" lon="6.391138471662998"><ele></ele><time>2015-8-4T19:24:10Z</time></trkpt>
<trkpt lat="46.816563941538334" lon="6.390291647985578"><ele></ele><time>2015-8-4T19:24:13Z</time></trkpt>
<trkpt lat="46.816078880801797" lon="6.389720588922501"><ele></ele><time>2015-8-4T19:24:16Z</time></trkpt>
<trkpt lat="46.815903699025512" lon="6.388972168788314"><ele></ele><time>2015-8-4T19:24:19Z</time></trkpt>
<trkpt lat="46.815000884234905" lon="6.387731479480863"><ele></ele><time>2015-8-4T19:24:22Z</time></trkpt>
<trkpt lat="46.814758311957121" lon="6.386904353275895"><ele></ele><time>2015-8-4T19:24:25Z</time></trkpt>
<trkpt lat="46.81456963531673" lon="6.386471092700958"><ele></ele><time>2015-8-4T19:24:28Z</time></trkpt>
<trkpt lat="46.814219355583191" lon="6.385959042236209"><ele></ele><time>2015-8-4T19:24:31Z</time></trkpt>
<trkpt lat="46.813801601529121" lon="6.385269714519382"><ele></ele><time>2015-8-4T19:24:34Z</time></trkpt>
<trkpt lat="46.81320833042264" lon="6.384087949991226"><ele></ele><time>2015-8-4T19:24:37Z</time></trkpt>
<trkpt lat="46.812642384320498" lon="6.383634991943836"><ele></ele><time>2015-8-4T19:24:40Z</time></trkpt>
<trkpt lat="46.812116922810674" lon="6.383280521258712"><ele></ele><time>2015-8-4T19:24:43Z</time></trkpt>
<trkpt lat="46.811564387753606" lon="6.382925966754556"><ele></ele><time>2015-8-4T19:24:46Z</time></trkpt>
<trkpt lat="46.81101193651557" lon="6.382748773321509"><ele></ele><time>2015-8-4T19:24:49Z</time></trkpt>
<trkpt lat="46.810230407863855" lon="6.382709378376603"><ele></ele><time>2015-8-4T19:24:52Z</time></trkpt>
<trkpt lat="46.809758841991425" lon="6.382413916289806"><ele></ele><time>2015-8-4T19:24:55Z</time></trkpt>
<trkpt lat="46.809543175622821" lon="6.381842857226729"><ele></ele><time>2015-8-4T19:24:58Z</time></trkpt>
<trkpt lat="46.809435384348035" lon="6.381291411817074"><ele></ele><time>2015-8-4T19:25:1Z</time></trkpt>
<trkpt lat="46.809139000251889" lon="6.380700571462512"><ele></ele><time>2015-8-4T19:25:4Z</time></trkpt>
<trkpt lat="46.808707751333714" lon="6.380090117454529"><ele></ele><time>2015-8-4T19:25:7Z</time></trkpt>
<trkpt lat="46.808249596506357" lon="6.379617461934686"><ele></ele><time>2015-8-4T19:25:10Z</time></trkpt>
<trkpt lat="46.808007108047605" lon="6.379381092265248"><ele></ele><time>2015-8-4T19:25:13Z</time></trkpt>
<trkpt lat="46.807751040905714" lon="6.37875085696578"><ele></ele><time>2015-8-4T19:25:16Z</time></trkpt>
<trkpt lat="46.807468067854643" lon="6.378416083753109"><ele></ele><time>2015-8-4T19:25:19Z</time></trkpt>
<trkpt lat="46.80687521584332" lon="6.37829789891839"><ele></ele><time>2015-8-4T19:25:22Z</time></trkpt>
<trkpt lat="46.806147582828999" lon="6.378120705485344"><ele></ele><time>2015-8-4T19:25:25Z</time></trkpt>
<trkpt lat="46.805878104642034" lon="6.37829789891839"><ele></ele><time>2015-8-4T19:25:28Z</time></trkpt>
<trkpt lat="46.805595131590962" lon="6.378573663532734"><ele></ele><time>2015-8-4T19:25:31Z</time></trkpt>
<trkpt lat="46.805096575990319" lon="6.378494873642921"><ele></ele><time>2015-8-4T19:25:34Z</time></trkpt>
<trkpt lat="46.80467882193625" lon="6.378317596390843"><ele></ele><time>2015-8-4T19:25:37Z</time></trkpt>
<trkpt lat="46.804368942975998" lon="6.377844940871"><ele></ele><time>2015-8-4T19:25:40Z</time></trkpt>
<trkpt lat="46.804288057610393" lon="6.37745107524097"><ele></ele><time>2015-8-4T19:25:43Z</time></trkpt>
<trkpt lat="46.803816491737962" lon="6.377096604555845"><ele></ele><time>2015-8-4T19:25:46Z</time></trkpt>
<trkpt lat="46.803452633321285" lon="6.376702738925815"><ele></ele><time>2015-8-4T19:25:49Z</time></trkpt>
<trkpt lat="46.803048374131322" lon="6.37638732790947"><ele></ele><time>2015-8-4T19:25:52Z</time></trkpt>
<trkpt lat="46.802859697490931" lon="6.376032857224345"><ele></ele><time>2015-8-4T19:25:55Z</time></trkpt>
<trkpt lat="46.802617125213146" lon="6.375520806759596"><ele></ele><time>2015-8-4T19:25:58Z</time></trkpt>
<trkpt lat="46.802051179111004" lon="6.375107243657112"><ele></ele><time>2015-8-4T19:26:1Z</time></trkpt>
<trkpt lat="46.801606519147754" lon="6.374792167916894"><ele></ele><time>2015-8-4T19:26:4Z</time></trkpt>
<trkpt lat="46.801134953275323" lon="6.374299814924598"><ele></ele><time>2015-8-4T19:26:7Z</time></trkpt>
<trkpt lat="46.800838485360146" lon="6.37366957962513"><ele></ele><time>2015-8-4T19:26:10Z</time></trkpt>
<trkpt lat="46.799976071342826" lon="6.372980335727334"><ele></ele><time>2015-8-4T19:26:13Z</time></trkpt>
<trkpt lat="46.79932932369411" lon="6.372448587790132"><ele></ele><time>2015-8-4T19:26:16Z</time></trkpt>
<trkpt lat="46.798992455005646" lon="6.372369797900319"><ele></ele><time>2015-8-4T19:26:19Z</time></trkpt>
<trkpt lat="46.797874057665467" lon="6.371483579277992"><ele></ele><time>2015-8-4T19:26:22Z</time></trkpt>
<trkpt lat="46.797564178705215" lon="6.371680554002523"><ele></ele><time>2015-8-4T19:26:25Z</time></trkpt>
<trkpt lat="46.796737723052502" lon="6.371969394385815"><ele></ele><time>2015-8-4T19:26:28Z</time></trkpt>
<trkpt lat="46.796396411955357" lon="6.372074419632554"><ele></ele><time>2015-8-4T19:26:31Z</time></trkpt>
<trkpt lat="46.795785538852215" lon="6.371838049963117"><ele></ele><time>2015-8-4T19:26:34Z</time></trkpt>
<trkpt lat="46.794833354651928" lon="6.371549209579825"><ele></ele><time>2015-8-4T19:26:37Z</time></trkpt>
<trkpt lat="46.794060794636607" lon="6.37131292372942"><ele></ele><time>2015-8-4T19:26:40Z</time></trkpt>
<trkpt lat="46.792982798069715" lon="6.371391713619232"><ele></ele><time>2015-8-4T19:26:43Z</time></trkpt>
<trkpt lat="46.791994655504823" lon="6.371391713619232"><ele></ele><time>2015-8-4T19:26:46Z</time></trkpt>
<trkpt lat="46.791455866768956" lon="6.371417865157127"><ele></ele><time>2015-8-4T19:26:49Z</time></trkpt>
<trkpt lat="46.790431765839458" lon="6.371575444936752"><ele></ele><time>2015-8-4T19:26:52Z</time></trkpt>
<trkpt lat="46.789497518911958" lon="6.372205596417189"><ele></ele><time>2015-8-4T19:26:55Z</time></trkpt>
<trkpt lat="46.788581293076277" lon="6.372625781223178"><ele></ele><time>2015-8-4T19:26:58Z</time></trkpt>
<trkpt lat="46.787808733060956" lon="6.373045882210136"><ele></ele><time>2015-8-4T19:27:1Z</time></trkpt>
<trkpt lat="46.787072131410241" lon="6.372967092320323"><ele></ele><time>2015-8-4T19:27:4Z</time></trkpt>
<trkpt lat="46.786191780120134" lon="6.373045882210136"><ele></ele><time>2015-8-4T19:27:7Z</time></trkpt>
<trkpt lat="46.785221574828029" lon="6.372940856963396"><ele></ele><time>2015-8-4T19:27:10Z</time></trkpt>
<trkpt lat="46.782849999144673" lon="6.373098436743021"><ele></ele><time>2015-8-4T19:27:13Z</time></trkpt>
<trkpt lat="46.780783860012889" lon="6.37280959635973"><ele></ele><time>2015-8-4T19:27:16Z</time></trkpt>
<trkpt lat="46.779831675812602" lon="6.372678419575095"><ele></ele><time>2015-8-4T19:27:19Z</time></trkpt>
<trkpt lat="46.778053035959601" lon="6.372757209464908"><ele></ele><time>2015-8-4T19:27:22Z</time></trkpt>
<trkpt lat="46.777657745406032" lon="6.372625948861241"><ele></ele><time>2015-8-4T19:27:25Z</time></trkpt>
<trkpt lat="46.777280475944281" lon="6.373203629627824"><ele></ele><time>2015-8-4T19:27:28Z</time></trkpt>
<trkpt lat="46.776633644476533" lon="6.374989226460457"><ele></ele><time>2015-8-4T19:27:31Z</time></trkpt>
<trkpt lat="46.775968875735998" lon="6.376144587993622"><ele></ele><time>2015-8-4T19:27:34Z</time></trkpt>
<trkpt lat="46.775807188823819" lon="6.376407109200954"><ele></ele><time>2015-8-4T19:27:37Z</time></trkpt>
<trkpt lat="46.775088524445891" lon="6.376879764720798"><ele></ele><time>2015-8-4T19:27:40Z</time></trkpt>
<trkpt lat="46.774315964430571" lon="6.377404974773526"><ele></ele><time>2015-8-4T19:27:43Z</time></trkpt>
<trkpt lat="46.773094302043319" lon="6.377615025267005"><ele></ele><time>2015-8-4T19:27:46Z</time></trkpt>
<trkpt lat="46.771926451474428" lon="6.378560336306691"><ele></ele><time>2015-8-4T19:27:49Z</time></trkpt>
<trkpt lat="46.771028162911534" lon="6.379453092813492"><ele></ele><time>2015-8-4T19:27:52Z</time></trkpt>
<trkpt lat="46.770183769986033" lon="6.379479411989451"><ele></ele><time>2015-8-4T19:27:55Z</time></trkpt>
<trkpt lat="46.76982443779707" lon="6.380030857399106"><ele></ele><time>2015-8-4T19:27:58Z</time></trkpt>
<trkpt lat="46.769608855247498" lon="6.380109563469887"><ele></ele><time>2015-8-4T19:28:1Z</time></trkpt>
<trkpt lat="46.769501063972712" lon="6.380766034126282"><ele></ele><time>2015-8-4T19:28:4Z</time></trkpt>
<trkpt lat="46.768854232504964" lon="6.381763899698854"><ele></ele><time>2015-8-4T19:28:7Z</time></trkpt>
<trkpt lat="46.767470799386501" lon="6.382840387523174"><ele></ele><time>2015-8-4T19:28:10Z</time></trkpt>
<trkpt lat="46.766123324632645" lon="6.384337060153484"><ele></ele><time>2015-8-4T19:28:13Z</time></trkpt>
<trkpt lat="46.765404660254717" lon="6.385781262069941"><ele></ele><time>2015-8-4T19:28:16Z</time></trkpt>
<trkpt lat="46.764650037512183" lon="6.38740936294198"><ele></ele><time>2015-8-4T19:28:19Z</time></trkpt>
<trkpt lat="46.764308726415038" lon="6.388039514422417"><ele></ele><time>2015-8-4T19:28:22Z</time></trkpt>
<trkpt lat="46.763266604393721" lon="6.38851216994226"><ele></ele><time>2015-8-4T19:28:25Z</time></trkpt>
<trkpt lat="46.762440232560039" lon="6.388590959832072"><ele></ele><time>2015-8-4T19:28:28Z</time></trkpt>
<trkpt lat="46.761757442727685" lon="6.388932354748249"><ele></ele><time>2015-8-4T19:28:31Z</time></trkpt>
<trkpt lat="46.760984882712364" lon="6.388801010325551"><ele></ele><time>2015-8-4T19:28:34Z</time></trkpt>
<trkpt lat="46.760032698512077" lon="6.388695985078812"><ele></ele><time>2015-8-4T19:28:37Z</time></trkpt>
<trkpt lat="46.759493742138147" lon="6.387593094259501"><ele></ele><time>2015-8-4T19:28:40Z</time></trkpt>
<trkpt lat="46.758918827399611" lon="6.387225547805429"><ele></ele><time>2015-8-4T19:28:43Z</time></trkpt>
<trkpt lat="46.758271995931864" lon="6.386989178135991"><ele></ele><time>2015-8-4T19:28:46Z</time></trkpt>
<trkpt lat="46.757409665733576" lon="6.386569077149034"><ele></ele><time>2015-8-4T19:28:49Z</time></trkpt>
<trkpt lat="46.756691001355648" lon="6.386332707479596"><ele></ele><time>2015-8-4T19:28:52Z</time></trkpt>
<trkpt lat="46.755882482975721" lon="6.384757244959474"><ele></ele><time>2015-8-4T19:28:55Z</time></trkpt>
<trkpt lat="46.755163818597794" lon="6.382498992606998"><ele></ele><time>2015-8-4T19:28:58Z</time></trkpt>
<trkpt lat="46.754067884758115" lon="6.380582135170698"><ele></ele><time>2015-8-4T19:29:1Z</time></trkpt>
<trkpt lat="46.753583159297705" lon="6.380109814926982"><ele></ele><time>2015-8-4T19:29:4Z</time></trkpt>
<trkpt lat="46.752954348921776" lon="6.379768503829837"><ele></ele><time>2015-8-4T19:29:7Z</time></trkpt>
<trkpt lat="46.752217663452029" lon="6.379558369517326"><ele></ele><time>2015-8-4T19:29:10Z</time></trkpt>
<trkpt lat="46.751445103436708" lon="6.378849428147078"><ele></ele><time>2015-8-4T19:29:13Z</time></trkpt>
<trkpt lat="46.750708501785994" lon="6.378035377711058"><ele></ele><time>2015-8-4T19:29:16Z</time></trkpt>
<trkpt lat="46.749253235757351" lon="6.377247646450996"><ele></ele><time>2015-8-4T19:29:19Z</time></trkpt>
<trkpt lat="46.747995615005493" lon="6.376328654587269"><ele></ele><time>2015-8-4T19:29:22Z</time></trkpt>
<trkpt lat="46.746917618438601" lon="6.375251999124885"><ele></ele><time>2015-8-4T19:29:25Z</time></trkpt>
<trkpt lat="46.745749851688743" lon="6.374122872948647"><ele></ele><time>2015-8-4T19:29:28Z</time></trkpt>
<trkpt lat="46.745013166218996" lon="6.372547410428524"><ele></ele><time>2015-8-4T19:29:31Z</time></trkpt>
<trkpt lat="46.744114877656102" lon="6.372153544798493"><ele></ele><time>2015-8-4T19:29:34Z</time></trkpt>
<trkpt lat="46.743162693455815" lon="6.372810015454888"><ele></ele><time>2015-8-4T19:29:37Z</time></trkpt>
<trkpt lat="46.742695569992065" lon="6.373072536662221"><ele></ele><time>2015-8-4T19:29:40Z</time></trkpt>
<trkpt lat="46.741923009976745" lon="6.372888721525669"><ele></ele><time>2015-8-4T19:29:43Z</time></trkpt>
<trkpt lat="46.741096554324031" lon="6.373466486111283"><ele></ele><time>2015-8-4T19:29:46Z</time></trkpt>
<trkpt lat="46.740198265761137" lon="6.374700553715229"><ele></ele><time>2015-8-4T19:29:49Z</time></trkpt>
<trkpt lat="46.739228060469031" lon="6.375212604179978"><ele></ele><time>2015-8-4T19:29:52Z</time></trkpt>
<trkpt lat="46.738716010004282" lon="6.37540957890451"><ele></ele><time>2015-8-4T19:29:55Z</time></trkpt>
<trkpt lat="46.736549204215407" lon="6.377969747409225"><ele></ele><time>2015-8-4T19:29:58Z</time></trkpt>
<trkpt lat="46.735021183267236" lon="6.37852119281888"><ele></ele><time>2015-8-4T19:30:1Z</time></trkpt>
<trkpt lat="46.734158853068948" lon="6.379899764433503"><ele></ele><time>2015-8-4T19:30:4Z</time></trkpt>
<trkpt lat="46.733654849231243" lon="6.381317730993033"><ele></ele><time>2015-8-4T19:30:7Z</time></trkpt>
<trkpt lat="46.733196694403887" lon="6.381869176402688"><ele></ele><time>2015-8-4T19:30:10Z</time></trkpt>
<trkpt lat="46.732719680294394" lon="6.382381226867437"><ele></ele><time>2015-8-4T19:30:13Z</time></trkpt>
<trkpt lat="46.732342410832644" lon="6.383444638922811"><ele></ele><time>2015-8-4T19:30:16Z</time></trkpt>
<trkpt lat="46.731803454458714" lon="6.384035479277372"><ele></ele><time>2015-8-4T19:30:19Z</time></trkpt>
<trkpt lat="46.731326440349221" lon="6.38517776504159"><ele></ele><time>2015-8-4T19:30:22Z</time></trkpt>
<trkpt lat="46.73078740015626" lon="6.386635042726994"><ele></ele><time>2015-8-4T19:30:25Z</time></trkpt>
<trkpt lat="46.730463858693838" lon="6.387855866923928"><ele></ele><time>2015-8-4T19:30:28Z</time></trkpt>
<trkpt lat="46.731002815067768" lon="6.38864359818399"><ele></ele><time>2015-8-4T19:30:31Z</time></trkpt>
<trkpt lat="46.731164501979947" lon="6.389510119333863"><ele></ele><time>2015-8-4T19:30:34Z</time></trkpt>
<trkpt lat="46.730625545606017" lon="6.391400741413236"><ele></ele><time>2015-8-4T19:30:37Z</time></trkpt>
<trkpt lat="46.72981702722609" lon="6.392227867618203"><ele></ele><time>2015-8-4T19:30:40Z</time></trkpt>
<trkpt lat="46.72838875092566" lon="6.393291363492608"><ele></ele><time>2015-8-4T19:30:43Z</time></trkpt>
<trkpt lat="46.727014286443591" lon="6.395181985571981"><ele></ele><time>2015-8-4T19:30:46Z</time></trkpt>
<trkpt lat="46.725855488330126" lon="6.397269498556852"><ele></ele><time>2015-8-4T19:30:49Z</time></trkpt>
<trkpt lat="46.725316531956196" lon="6.399632776156068"><ele></ele><time>2015-8-4T19:30:52Z</time></trkpt>
<trkpt lat="46.725586010143161" lon="6.401090137660503"><ele></ele><time>2015-8-4T19:30:55Z</time></trkpt>
<trkpt lat="46.726124966517091" lon="6.401720372959971"><ele></ele><time>2015-8-4T19:30:58Z</time></trkpt>
<trkpt lat="46.726556131616235" lon="6.402744390070438"><ele></ele><time>2015-8-4T19:31:1Z</time></trkpt>
<trkpt lat="46.727418545633554" lon="6.403492810204625"><ele></ele><time>2015-8-4T19:31:4Z</time></trkpt>
<trkpt lat="46.727876700460911" lon="6.405422743409872"><ele></ele><time>2015-8-4T19:31:7Z</time></trkpt>
<trkpt lat="46.728846905753016" lon="6.407470945268869"><ele></ele><time>2015-8-4T19:31:10Z</time></trkpt>
<trkpt lat="46.730005703866482" lon="6.408534441143274"><ele></ele><time>2015-8-4T19:31:13Z</time></trkpt>
<trkpt lat="46.730194380506873" lon="6.408928306773305"><ele></ele><time>2015-8-4T19:31:16Z</time></trkpt>
<trkpt lat="46.729493653401732" lon="6.40967664308846"><ele></ele><time>2015-8-4T19:31:19Z</time></trkpt>
<trkpt lat="46.728819916024804" lon="6.411606660112739"><ele></ele><time>2015-8-4T19:31:22Z</time></trkpt>
<trkpt lat="46.728631239384413" lon="6.412670155987144"><ele></ele><time>2015-8-4T19:31:25Z</time></trkpt>
<trkpt lat="46.729493653401732" lon="6.414166828617454"><ele></ele><time>2015-8-4T19:31:28Z</time></trkpt>
<trkpt lat="46.729682330042124" lon="6.41641192138195"><ele></ele><time>2015-8-4T19:31:31Z</time></trkpt>
<trkpt lat="46.729304976761341" lon="6.418696409091353"><ele></ele><time>2015-8-4T19:31:34Z</time></trkpt>
<trkpt lat="46.728685135021806" lon="6.420980896800757"><ele></ele><time>2015-8-4T19:31:37Z</time></trkpt>
<trkpt lat="46.728900801390409" lon="6.42365925014019"><ele></ele><time>2015-8-4T19:31:40Z</time></trkpt>
<trkpt lat="46.729978714138269" lon="6.425865031778812"><ele></ele><time>2015-8-4T19:31:43Z</time></trkpt>
<trkpt lat="46.731002815067768" lon="6.427361704409123"><ele></ele><time>2015-8-4T19:31:46Z</time></trkpt>
<trkpt lat="46.731973020359874" lon="6.428385805338621"><ele></ele><time>2015-8-4T19:31:49Z</time></trkpt>
<trkpt lat="46.733078677207232" lon="6.428622594103217"><ele></ele><time>2015-8-4T19:31:52Z</time></trkpt>
<trkpt lat="46.733914101496339" lon="6.428977064788342"><ele></ele><time>2015-8-4T19:31:55Z</time></trkpt>
<trkpt lat="46.734156673774123" lon="6.43051321618259"><ele></ele><time>2015-8-4T19:31:58Z</time></trkpt>
<trkpt lat="46.733887195587158" lon="6.432482544332743"><ele></ele><time>2015-8-4T19:32:1Z</time></trkpt>
<trkpt lat="46.734291454777122" lon="6.434964006766677"><ele></ele><time>2015-8-4T19:32:4Z</time></trkpt>
<trkpt lat="46.734722619876266" lon="6.436460763216019"><ele></ele><time>2015-8-4T19:32:7Z</time></trkpt>
<trkpt lat="46.735773626714945" lon="6.437996830791235"><ele></ele><time>2015-8-4T19:32:10Z</time></trkpt>
<trkpt lat="46.735585033893585" lon="6.438863351941109"><ele></ele><time>2015-8-4T19:32:13Z</time></trkpt>
<trkpt lat="46.734372256323695" lon="6.439217906445265"><ele></ele><time>2015-8-4T19:32:16Z</time></trkpt>
<trkpt lat="46.733994986861944" lon="6.440557083114982"><ele></ele><time>2015-8-4T19:32:19Z</time></trkpt>
<trkpt lat="46.734183663502336" lon="6.442211335524917"><ele></ele><time>2015-8-4T19:32:22Z</time></trkpt>
<trkpt lat="46.734695713967085" lon="6.443668697029352"><ele></ele><time>2015-8-4T19:32:25Z</time></trkpt>
<trkpt lat="46.735558044165373" lon="6.444101957604289"><ele></ele><time>2015-8-4T19:32:28Z</time></trkpt>
<trkpt lat="46.736231781542301" lon="6.444850293919444"><ele></ele><time>2015-8-4T19:32:31Z</time></trkpt>
<trkpt lat="46.736689936369658" lon="6.445992579683662"><ele></ele><time>2015-8-4T19:32:34Z</time></trkpt>
<trkpt lat="46.737660141661763" lon="6.448080092668533"><ele></ele><time>2015-8-4T19:32:37Z</time></trkpt>
<trkpt lat="46.738468576222658" lon="6.450561555102468"><ele></ele><time>2015-8-4T19:32:40Z</time></trkpt>
<trkpt lat="46.739088417962193" lon="6.452570278197527"><ele></ele><time>2015-8-4T19:32:43Z</time></trkpt>
<trkpt lat="46.739762155339122" lon="6.454618480056524"><ele></ele><time>2015-8-4T19:32:46Z</time></trkpt>
<trkpt lat="46.74008552916348" lon="6.456272732466459"><ele></ele><time>2015-8-4T19:32:49Z</time></trkpt>
<trkpt lat="46.739762155339122" lon="6.45737562328577"><ele></ele><time>2015-8-4T19:32:52Z</time></trkpt>
<trkpt lat="46.739627458155155" lon="6.457769488915801"><ele></ele><time>2015-8-4T19:32:55Z</time></trkpt>
<trkpt lat="46.739304000511765" lon="6.45847843028605"><ele></ele><time>2015-8-4T19:32:58Z</time></trkpt>
<trkpt lat="46.738818939775229" lon="6.460014581680298"><ele></ele><time>2015-8-4T19:33:1Z</time></trkpt>
<trkpt lat="46.738387774676085" lon="6.46190520375967"><ele></ele><time>2015-8-4T19:33:4Z</time></trkpt>
<trkpt lat="46.7381452023983" lon="6.463244380429387"><ele></ele><time>2015-8-4T19:33:7Z</time></trkpt>
<trkpt lat="46.737714037299156" lon="6.464347187429667"><ele></ele><time>2015-8-4T19:33:10Z</time></trkpt>
<trkpt lat="46.736743832007051" lon="6.464701741933823"><ele></ele><time>2015-8-4T19:33:13Z</time></trkpt>
<trkpt lat="46.735558044165373" lon="6.465253103524447"><ele></ele><time>2015-8-4T19:33:16Z</time></trkpt>
<trkpt lat="46.734722619876266" lon="6.466552969068289"><ele></ele><time>2015-8-4T19:33:19Z</time></trkpt>
<trkpt lat="46.733536832034588" lon="6.468364801257849"><ele></ele><time>2015-8-4T19:33:22Z</time></trkpt>
<trkpt lat="46.732809199020267" lon="6.469900868833065"><ele></ele><time>2015-8-4T19:33:25Z</time></trkpt>
<trkpt lat="46.73232413828373" lon="6.473091272637248"><ele></ele><time>2015-8-4T19:33:28Z</time></trkpt>
<trkpt lat="46.731892973184586" lon="6.475730231031776"><ele></ele><time>2015-8-4T19:33:31Z</time></trkpt>
<trkpt lat="46.731246141716838" lon="6.478014718741179"><ele></ele><time>2015-8-4T19:33:34Z</time></trkpt>
<trkpt lat="46.731677306815982" lon="6.479038903489709"><ele></ele><time>2015-8-4T19:33:37Z</time></trkpt>
<trkpt lat="46.732216263189912" lon="6.479905424639583"><ele></ele><time>2015-8-4T19:33:40Z</time></trkpt>
<trkpt lat="46.732620522379875" lon="6.482426282018423"><ele></ele><time>2015-8-4T19:33:43Z</time></trkpt>
<trkpt lat="46.733024781569839" lon="6.484080534428358"><ele></ele><time>2015-8-4T19:33:46Z</time></trkpt>
<trkpt lat="46.733482936397195" lon="6.486128736287355"><ele></ele><time>2015-8-4T19:33:49Z</time></trkpt>
<trkpt lat="46.734210569411516" lon="6.487467912957072"><ele></ele><time>2015-8-4T19:33:52Z</time></trkpt>
<trkpt lat="46.73461482860148" lon="6.489397846162319"><ele></ele><time>2015-8-4T19:33:55Z</time></trkpt>
<trkpt lat="46.73464173451066" lon="6.491327863186598"><ele></ele><time>2015-8-4T19:33:58Z</time></trkpt>
<trkpt lat="46.734237475320697" lon="6.493179090321064"><ele></ele><time>2015-8-4T19:34:1Z</time></trkpt>
<trkpt lat="46.73375241458416" lon="6.494951527565718"><ele></ele><time>2015-8-4T19:34:4Z</time></trkpt>
<trkpt lat="46.733617633581161" lon="6.496960334479809"><ele></ele><time>2015-8-4T19:34:7Z</time></trkpt>
<trkpt lat="46.733024781569839" lon="6.498811561614275"><ele></ele><time>2015-8-4T19:34:10Z</time></trkpt>
<trkpt lat="46.732593616470695" lon="6.500426419079304"><ele></ele><time>2015-8-4T19:34:13Z</time></trkpt>
<trkpt lat="46.731919879093766" lon="6.501056654378772"><ele></ele><time>2015-8-4T19:34:16Z</time></trkpt>
<trkpt lat="46.730653205886483" lon="6.501253545284271"><ele></ele><time>2015-8-4T19:34:19Z</time></trkpt>
<trkpt lat="46.729844771325588" lon="6.502750301733613"><ele></ele><time>2015-8-4T19:34:22Z</time></trkpt>
<trkpt lat="46.729521313682199" lon="6.504601528868079"><ele></ele><time>2015-8-4T19:34:25Z</time></trkpt>
<trkpt lat="46.729683084413409" lon="6.506531545892358"><ele></ele><time>2015-8-4T19:34:28Z</time></trkpt>
<trkpt lat="46.729952562600374" lon="6.507555646821857"><ele></ele><time>2015-8-4T19:34:31Z</time></trkpt>
<trkpt lat="46.728982357308269" lon="6.507082991302013"><ele></ele><time>2015-8-4T19:34:34Z</time></trkpt>
<trkpt lat="46.72830861993134" lon="6.50712238624692"><ele></ele><time>2015-8-4T19:34:37Z</time></trkpt>
<trkpt lat="46.728524202480912" lon="6.507870722562075"><ele></ele><time>2015-8-4T19:34:40Z</time></trkpt>
<trkpt lat="46.729278825223446" lon="6.508303983137012"><ele></ele><time>2015-8-4T19:34:43Z</time></trkpt>
<trkpt lat="46.730006458237767" lon="6.50901292450726"><ele></ele><time>2015-8-4T19:34:46Z</time></trkpt>
<trkpt lat="46.731515619903803" lon="6.511021731421351"><ele></ele><time>2015-8-4T19:34:49Z</time></trkpt>
<trkpt lat="46.731865983456373" lon="6.511573176831007"><ele></ele><time>2015-8-4T19:34:52Z</time></trkpt>
<trkpt lat="46.729683084413409" lon="6.51748132891953"><ele></ele><time>2015-8-4T19:34:55Z</time></trkpt>
<trkpt lat="46.729278825223446" lon="6.519371950998902"><ele></ele><time>2015-8-4T19:34:58Z</time></trkpt>
<trkpt lat="46.729979468509555" lon="6.52472865767777"><ele></ele><time>2015-8-4T19:35:1Z</time></trkpt>
<trkpt lat="46.730330921709538" lon="6.528037246316671"><ele></ele><time>2015-8-4T19:35:4Z</time></trkpt>
<trkpt lat="46.730492608621716" lon="6.531109465286136"><ele></ele><time>2015-8-4T19:35:7Z</time></trkpt>
<trkpt lat="46.731112450361252" lon="6.531700305640698"><ele></ele><time>2015-8-4T19:35:10Z</time></trkpt>
<trkpt lat="46.731840083375573" lon="6.531660910695791"><ele></ele><time>2015-8-4T19:35:13Z</time></trkpt>
<trkpt lat="46.733672618865967" lon="6.530951969325542"><ele></ele><time>2015-8-4T19:35:16Z</time></trkpt>
<trkpt lat="46.735127884894609" lon="6.530124843120575"><ele></ele><time>2015-8-4T19:35:19Z</time></trkpt>
<trkpt lat="46.737122191116214" lon="6.529573397710919"><ele></ele><time>2015-8-4T19:35:22Z</time></trkpt>
<trkpt lat="46.73865825869143" lon="6.530085448175669"><ele></ele><time>2015-8-4T19:35:25Z</time></trkpt>
<trkpt lat="46.74076035618782" lon="6.531267045065761"><ele></ele><time>2015-8-4T19:35:28Z</time></trkpt>
<trkpt lat="46.742619881406426" lon="6.532488036900759"><ele></ele><time>2015-8-4T19:35:31Z</time></trkpt>
<trkpt lat="46.742754578590393" lon="6.533945398405194"><ele></ele><time>2015-8-4T19:35:34Z</time></trkpt>
<trkpt lat="46.741919154301286" lon="6.537057012319565"><ele></ele><time>2015-8-4T19:35:37Z</time></trkpt>
<trkpt lat="46.740005733445287" lon="6.540050525218248"><ele></ele><time>2015-8-4T19:35:40Z</time></trkpt>
<trkpt lat="46.739197298884392" lon="6.540601970627904"><ele></ele><time>2015-8-4T19:35:43Z</time></trkpt>
<trkpt lat="46.73143582418561" lon="6.54032620601356"><ele></ele><time>2015-8-4T19:35:46Z</time></trkpt>
<trkpt lat="46.726638861000538" lon="6.539499079808593"><ele></ele><time>2015-8-4T19:35:49Z</time></trkpt>
<trkpt lat="46.723728664219379" lon="6.536466171965003"><ele></ele><time>2015-8-4T19:35:52Z</time></trkpt>
<trkpt lat="46.721734441816807" lon="6.539065735414624"><ele></ele><time>2015-8-4T19:35:55Z</time></trkpt>
<trkpt lat="46.720710340887308" lon="6.543359030038118"><ele></ele><time>2015-8-4T19:35:58Z</time></trkpt>
<trkpt lat="46.719928812235594" lon="6.549188392236829"><ele></ele><time>2015-8-4T19:36:1Z</time></trkpt>
<trkpt lat="46.718311859294772" lon="6.552615165710449"><ele></ele><time>2015-8-4T19:36:4Z</time></trkpt>
<trkpt lat="46.715697795152664" lon="6.55631753616035"><ele></ele><time>2015-8-4T19:36:7Z</time></trkpt>
<trkpt lat="46.712733283638954" lon="6.560453251004219"><ele></ele><time>2015-8-4T19:36:10Z</time></trkpt>
<trkpt lat="46.710981633514166" lon="6.566518982872367"><ele></ele><time>2015-8-4T19:36:13Z</time></trkpt>
<trkpt lat="46.711331913247705" lon="6.568448999896646"><ele></ele><time>2015-8-4T19:36:16Z</time></trkpt>
<trkpt lat="46.711143320426345" lon="6.569157941266894"><ele></ele><time>2015-8-4T19:36:19Z</time></trkpt>
<trkpt lat="46.709176003932953" lon="6.570772882550955"><ele></ele><time>2015-8-4T19:36:22Z</time></trkpt>
<trkpt lat="46.706292377784848" lon="6.569354915991426"><ele></ele><time>2015-8-4T19:36:25Z</time></trkpt>
<trkpt lat="46.703408835455775" lon="6.569039756432176"><ele></ele><time>2015-8-4T19:36:28Z</time></trkpt>
<trkpt lat="46.702034370973706" lon="6.569236731156707"><ele></ele><time>2015-8-4T19:36:31Z</time></trkpt>
<trkpt lat="46.698315320536494" lon="6.567346109077334"><ele></ele><time>2015-8-4T19:36:34Z</time></trkpt>
<trkpt lat="46.696267202496529" lon="6.566322008147836"><ele></ele><time>2015-8-4T19:36:37Z</time></trkpt>
<trkpt lat="46.691038990393281" lon="6.566558377817273"><ele></ele><time>2015-8-4T19:36:40Z</time></trkpt>
<trkpt lat="46.690146904438734" lon="6.566755268722773"><ele></ele><time>2015-8-4T19:36:43Z</time></trkpt>
<trkpt lat="46.689068907871842" lon="6.566597772762179"><ele></ele><time>2015-8-4T19:36:46Z</time></trkpt>
<trkpt lat="46.686077490448952" lon="6.565219201147556"><ele></ele><time>2015-8-4T19:36:49Z</time></trkpt>
<trkpt lat="46.682574106380343" lon="6.565061621367931"><ele></ele><time>2015-8-4T19:36:52Z</time></trkpt>
<trkpt lat="46.681226631626487" lon="6.56447078101337"><ele></ele><time>2015-8-4T19:36:55Z</time></trkpt>
<trkpt lat="46.679555783048272" lon="6.56427389010787"><ele></ele><time>2015-8-4T19:36:58Z</time></trkpt>
<trkpt lat="46.678181318566203" lon="6.565297907218337"><ele></ele><time>2015-8-4T19:37:1Z</time></trkpt>
<trkpt lat="46.677561476826668" lon="6.565573671832681"><ele></ele><time>2015-8-4T19:37:4Z</time></trkpt>
<trkpt lat="46.676779948174953" lon="6.564943436533213"><ele></ele><time>2015-8-4T19:37:7Z</time></trkpt>
<trkpt lat="46.673066262155771" lon="6.567739974707365"><ele></ele><time>2015-8-4T19:37:10Z</time></trkpt>
<trkpt lat="46.6709372587502" lon="6.5648646466434"><ele></ele><time>2015-8-4T19:37:13Z</time></trkpt>
<trkpt lat="46.669751470908523" lon="6.568724680691958"><ele></ele><time>2015-8-4T19:37:16Z</time></trkpt>
<trkpt lat="46.668808255344629" lon="6.569354915991426"><ele></ele><time>2015-8-4T19:37:19Z</time></trkpt>
<trkpt lat="46.667811060324311" lon="6.569157941266894"><ele></ele><time>2015-8-4T19:37:22Z</time></trkpt>
<trkpt lat="46.666517481207848" lon="6.568764075636864"><ele></ele><time>2015-8-4T19:37:25Z</time></trkpt>
<trkpt lat="46.66565515100956" lon="6.569000361487269"><ele></ele><time>2015-8-4T19:37:28Z</time></trkpt>
<trkpt lat="46.664846632629633" lon="6.569748781621456"><ele></ele><time>2015-8-4T19:37:31Z</time></trkpt>
<trkpt lat="46.663795625790954" lon="6.569630596786737"><ele></ele><time>2015-8-4T19:37:34Z</time></trkpt>
<trkpt lat="46.662232568487525" lon="6.571403034031391"><ele></ele><time>2015-8-4T19:37:37Z</time></trkpt>
<trkpt lat="46.660885093733668" lon="6.571915084496141"><ele></ele><time>2015-8-4T19:37:40Z</time></trkpt>
<trkpt lat="46.660157460719347" lon="6.5737269166857"><ele></ele><time>2015-8-4T19:37:43Z</time></trkpt>
<trkpt lat="46.649762978777289" lon="6.576365875080228"><ele></ele><time>2015-8-4T19:37:46Z</time></trkpt>
<trkpt lat="46.648496305570006" lon="6.576090194284916"><ele></ele><time>2015-8-4T19:37:49Z</time></trkpt>
<trkpt lat="46.644602073356509" lon="6.577508160844445"><ele></ele><time>2015-8-4T19:37:52Z</time></trkpt>
<trkpt lat="46.644117012619972" lon="6.577980816364288"><ele></ele><time>2015-8-4T19:37:55Z</time></trkpt>
<trkpt lat="46.643389379605651" lon="6.578098917379975"><ele></ele><time>2015-8-4T19:37:58Z</time></trkpt>
<trkpt lat="46.64336247369647" lon="6.578138312324882"><ele></ele><time>2015-8-4T19:38:1Z</time></trkpt>
<trkpt lat="46.643389379605651" lon="6.578020211309195"><ele></ele><time>2015-8-4T19:38:4Z</time></trkpt>
<trkpt lat="46.64336247369647" lon="6.578138312324882"><ele></ele><time>2015-8-4T19:38:7Z</time></trkpt>
</trkseg></trk></gpx>